createdAt,value
2023-04-24T00:00:07.331Z,54.25
2023-04-24T00:02:34.302Z,54.07
2023-04-24T00:05:04.082Z,53.82
2023-04-24T00:07:31.218Z,53.54
2023-04-24T00:09:58.063Z,54.35
2023-04-24T00:12:25.367Z,55.17
2023-04-24T00:14:52.274Z,55.39
2023-04-24T00:17:21.168Z,55.79
2023-04-24T00:19:48.623Z,55.02
2023-04-24T00:22:15.619Z,54.70
2023-04-24T00:24:42.510Z,55.49
2023-04-24T00:27:09.259Z,56.33
2023-04-24T00:29:36.200Z,56.61
2023-04-24T00:32:03.095Z,56.61
2023-04-24T00:34:30.014Z,56.47
2023-04-24T00:36:57.059Z,55.45
2023-04-24T00:39:24.178Z,55.65
2023-04-24T00:41:51.964Z,56.29
2023-04-24T00:44:18.779Z,56.82
2023-04-24T00:46:45.720Z,56.99
2023-04-24T00:49:13.190Z,56.81
2023-04-24T00:51:41.921Z,56.54
2023-04-24T00:54:08.931Z,55.97
2023-04-24T00:56:35.976Z,55.71
2023-04-24T00:59:02.691Z,55.60
2023-04-24T01:01:29.615Z,56.08
2023-04-24T01:03:57.358Z,56.24
2023-04-24T01:06:24.498Z,56.52
2023-04-24T01:08:51.413Z,56.32
2023-04-24T01:11:18.124Z,56.83
2023-04-24T01:13:46.204Z,56.97
2023-04-24T01:16:13.121Z,56.29
2023-04-24T01:18:40.128Z,57.10
2023-04-24T01:21:07.058Z,57.61
2023-04-24T01:23:33.901Z,56.79
2023-04-24T01:26:01.180Z,56.43
2023-04-24T01:28:27.981Z,56.47
2023-04-24T01:30:54.831Z,57.34
2023-04-24T01:33:23.645Z,57.77
2023-04-24T01:35:50.581Z,58.05
2023-04-24T01:38:17.515Z,58.50
2023-04-24T01:40:44.361Z,57.96
2023-04-24T01:43:11.108Z,57.21
2023-04-24T01:45:38.057Z,56.96
2023-04-24T01:48:05.029Z,57.05
2023-04-24T01:50:31.972Z,56.40
2023-04-24T01:52:58.883Z,57.09
2023-04-24T01:55:25.658Z,58.09
2023-04-24T01:57:53.486Z,58.24
2023-04-24T02:00:20.442Z,58.54
2023-04-24T02:02:48.453Z,57.81
2023-04-24T02:05:16.065Z,58.21
2023-04-24T02:07:42.944Z,58.13
2023-04-24T02:10:10.358Z,58.74
2023-04-24T02:12:37.247Z,59.19
2023-04-24T02:15:04.448Z,58.98
2023-04-24T02:17:31.987Z,59.06
2023-04-24T02:19:59.057Z,59.60
2023-04-24T02:22:25.900Z,59.49
2023-04-24T02:24:52.649Z,59.75
2023-04-24T02:27:19.588Z,59.88
2023-04-24T02:29:47.349Z,59.52
2023-04-24T02:32:16.834Z,59.44
2023-04-24T02:34:43.926Z,59.54
2023-04-24T02:37:11.051Z,59.93
2023-04-24T02:39:37.896Z,60.02
2023-04-24T02:42:04.834Z,59.61
2023-04-24T02:44:31.680Z,59.70
2023-04-24T02:46:58.454Z,59.79
2023-04-24T02:49:25.360Z,59.98
2023-04-24T02:51:52.137Z,60.80
2023-04-24T02:54:18.954Z,60.11
2023-04-24T02:56:45.892Z,60.35
2023-04-24T02:59:12.801Z,60.22
2023-04-24T03:01:39.842Z,60.56
2023-04-24T03:04:07.004Z,60.01
2023-04-24T03:06:36.593Z,60.29
2023-04-24T03:09:04.751Z,60.14
2023-04-24T03:11:32.781Z,60.02
2023-04-24T03:13:59.622Z,60.04
2023-04-24T03:16:27.081Z,60.24
2023-04-24T03:18:55.915Z,59.95
2023-04-24T03:21:23.845Z,60.13
2023-04-24T03:23:50.885Z,60.41
2023-04-24T03:26:18.139Z,59.91
2023-04-24T03:28:54.708Z,60.02
2023-04-24T03:31:22.375Z,59.65
2023-04-24T03:33:49.520Z,59.38
2023-04-24T03:36:16.638Z,59.10
2023-04-24T03:38:44.304Z,57.99
2023-04-24T03:41:33.090Z,57.18
2023-04-24T03:44:19.385Z,56.46
2023-04-24T03:46:46.480Z,56.27
2023-04-24T03:49:13.675Z,55.84
2023-04-24T03:51:43.094Z,54.75
2023-04-24T03:54:16.177Z,53.89
2023-04-24T03:56:43.095Z,53.18
2023-04-24T03:59:10.476Z,52.69
2023-04-24T04:01:39.077Z,52.28
2023-04-24T04:04:14.209Z,52.00
2023-04-24T04:06:41.554Z,51.64
2023-04-24T04:09:09.823Z,50.90
2023-04-24T04:11:37.101Z,49.24
2023-04-24T04:14:03.887Z,47.57
2023-04-24T04:16:31.107Z,46.81
2023-04-24T04:19:07.294Z,46.08
2023-04-24T04:21:37.770Z,46.58
2023-04-24T04:24:17.203Z,47.71
2023-04-24T04:26:49.070Z,47.58
2023-04-24T04:29:29.634Z,46.31
2023-04-24T04:31:56.721Z,45.49
2023-04-24T04:34:24.358Z,44.94
2023-04-24T04:36:51.785Z,44.74
2023-04-24T04:39:31.743Z,44.93
2023-04-24T04:42:07.994Z,45.40
2023-04-24T04:44:41.017Z,45.93
2023-04-24T04:47:10.021Z,46.34
2023-04-24T04:49:39.613Z,46.88
2023-04-24T04:52:09.805Z,47.30
2023-04-24T04:54:37.059Z,47.97
2023-04-24T04:57:04.433Z,48.17
2023-04-24T04:59:31.692Z,47.83
2023-04-24T05:02:03.255Z,47.49
2023-04-24T05:04:31.982Z,46.61
2023-04-24T05:06:59.395Z,46.18
2023-04-24T05:09:28.402Z,44.56
2023-04-24T05:11:58.472Z,43.65
2023-04-24T05:14:26.242Z,42.87
2023-04-24T05:16:53.762Z,41.30
2023-04-24T05:19:21.650Z,38.65
2023-04-24T05:21:48.532Z,36.14
2023-04-24T05:24:15.456Z,34.30
2023-04-24T05:27:17.418Z,33.86
2023-04-24T05:29:45.152Z,32.67
2023-04-24T05:32:12.758Z,30.70
2023-04-24T05:34:39.797Z,30.08
2023-04-24T05:37:09.305Z,29.08
2023-04-24T05:39:37.060Z,28.51
2023-04-24T05:42:05.640Z,27.13
2023-04-24T05:44:32.486Z,26.32
2023-04-24T05:46:59.945Z,26.12
2023-04-24T05:49:26.989Z,25.92
2023-04-24T05:51:54.497Z,25.48
2023-04-24T05:54:21.391Z,25.18
2023-04-24T05:56:48.272Z,24.54
2023-04-24T05:59:20.053Z,24.07
2023-04-24T06:01:47.404Z,24.10
2023-04-24T06:04:17.542Z,24.33
2023-04-24T06:06:44.443Z,24.61
2023-04-24T06:09:11.460Z,24.39
2023-04-24T06:11:38.416Z,24.65
2023-04-24T06:14:05.689Z,24.85
2023-04-24T06:16:40.019Z,25.47
2023-04-24T06:19:15.513Z,25.99
2023-04-24T06:21:42.383Z,26.91
2023-04-24T06:24:09.303Z,27.75
2023-04-24T06:26:36.357Z,28.37
2023-04-24T06:29:03.295Z,28.87
2023-04-24T06:31:30.095Z,29.74
2023-04-24T06:33:57.083Z,30.81
2023-04-24T06:36:24.651Z,31.44
2023-04-24T06:38:51.453Z,32.21
2023-04-24T06:41:18.346Z,32.61
2023-04-24T06:43:46.015Z,33.16
2023-04-24T06:46:13.183Z,33.52
2023-04-24T06:48:40.623Z,33.72
2023-04-24T06:51:07.432Z,33.92
2023-04-24T06:53:34.455Z,34.01
2023-04-24T06:56:01.547Z,35.37
2023-04-24T06:58:28.792Z,35.70
2023-04-24T07:00:55.645Z,35.39
2023-04-24T07:03:22.861Z,33.87
2023-04-24T07:05:50.541Z,34.61
2023-04-24T07:08:18.818Z,34.63
2023-04-24T07:10:46.200Z,34.27
2023-04-24T07:13:13.129Z,34.30
2023-04-24T07:15:41.036Z,34.64
2023-04-24T07:18:08.112Z,34.19
2023-04-24T07:20:35.404Z,34.08
2023-04-24T07:23:02.946Z,34.98
2023-04-24T07:25:29.893Z,34.17
2023-04-24T07:27:56.621Z,33.58
2023-04-24T07:30:23.442Z,34.65
2023-04-24T07:32:50.405Z,34.41
2023-04-24T07:35:17.336Z,35.05
2023-04-24T07:37:47.046Z,36.43
2023-04-24T07:40:14.639Z,37.07
2023-04-24T07:42:41.619Z,36.79
2023-04-24T07:45:08.473Z,36.67
2023-04-24T07:47:35.444Z,36.21
2023-04-24T07:50:02.363Z,34.97
2023-04-24T07:52:29.099Z,33.97
2023-04-24T07:54:59.533Z,33.88
2023-04-24T07:57:26.515Z,34.58
2023-04-24T07:59:53.394Z,35.49
2023-04-24T08:02:20.260Z,35.18
2023-04-24T08:04:47.279Z,35.70
2023-04-24T08:07:14.365Z,36.05
2023-04-24T08:09:41.270Z,35.35
2023-04-24T08:12:08.084Z,35.81
2023-04-24T08:14:34.775Z,35.85
2023-04-24T08:17:02.375Z,35.00
2023-04-24T08:19:29.225Z,35.83
2023-04-24T08:21:56.177Z,36.07
2023-04-24T08:24:23.320Z,35.97
2023-04-24T08:26:55.107Z,36.24
2023-04-24T08:29:22.034Z,36.28
2023-04-24T08:31:48.880Z,36.37
2023-04-24T08:34:15.705Z,36.11
2023-04-24T08:36:46.948Z,36.34
2023-04-24T08:39:15.483Z,37.01
2023-04-24T08:41:44.363Z,36.41
2023-04-24T08:44:11.380Z,36.57
2023-04-24T08:46:38.341Z,36.17
2023-04-24T08:49:05.900Z,36.23
2023-04-24T08:51:32.729Z,36.26
2023-04-24T08:53:59.568Z,35.40
2023-04-24T08:56:26.282Z,35.39
2023-04-24T08:58:53.252Z,35.45
2023-04-24T09:01:23.412Z,35.43
2023-04-24T09:03:51.084Z,36.13
2023-04-24T09:06:18.843Z,36.53
2023-04-24T09:08:46.398Z,35.54
2023-04-24T09:11:13.303Z,34.98
2023-04-24T09:13:40.138Z,35.54
2023-04-24T09:16:07.337Z,35.01
2023-04-24T09:18:36.361Z,35.38
2023-04-24T09:21:04.992Z,34.93
2023-04-24T09:23:32.049Z,34.94
2023-04-24T09:25:59.784Z,34.62
2023-04-24T09:28:33.789Z,34.49
2023-04-24T09:31:11.035Z,34.59
2023-04-24T09:33:38.134Z,34.59
2023-04-24T09:36:05.485Z,34.67
2023-04-24T09:38:36.370Z,34.32
2023-04-24T09:41:04.578Z,34.84
2023-04-24T09:43:31.574Z,35.21
2023-04-24T09:45:59.780Z,35.08
2023-04-24T09:48:33.463Z,35.05
2023-04-24T09:51:01.939Z,35.28
2023-04-24T09:53:28.944Z,35.53
2023-04-24T09:55:55.989Z,35.86
2023-04-24T09:58:27.496Z,37.92
2023-04-24T10:00:54.794Z,38.03
2023-04-24T10:03:21.800Z,37.65
2023-04-24T10:05:48.789Z,37.70
2023-04-24T10:08:15.632Z,37.37
2023-04-24T10:10:46.321Z,37.49
2023-04-24T10:13:14.033Z,38.08
2023-04-24T10:15:41.817Z,38.42
2023-04-24T10:18:09.633Z,38.84
2023-04-24T10:20:37.146Z,38.76
2023-04-24T10:23:04.170Z,38.02
2023-04-24T10:25:31.866Z,37.92
2023-04-24T10:28:00.633Z,37.60
2023-04-24T10:30:28.190Z,38.27
2023-04-24T10:32:55.476Z,38.76
2023-04-24T10:35:25.145Z,38.97
2023-04-24T10:37:53.230Z,39.61
2023-04-24T10:40:20.410Z,39.60
2023-04-24T10:42:50.918Z,38.18
2023-04-24T10:45:22.852Z,34.97
2023-04-24T10:47:59.587Z,33.48
2023-04-24T10:50:27.763Z,33.06
2023-04-24T10:52:56.759Z,32.66
2023-04-24T10:55:43.013Z,32.49
2023-04-24T10:58:09.832Z,33.42
2023-04-24T11:00:40.129Z,33.83
2023-04-24T11:03:07.818Z,33.73
2023-04-24T11:05:53.087Z,32.78
2023-04-24T11:08:30.175Z,31.91
2023-04-24T11:10:58.751Z,33.04
2023-04-24T11:13:26.768Z,32.61
2023-04-24T11:16:12.878Z,32.68
2023-04-24T11:18:41.228Z,32.39
2023-04-24T11:21:13.188Z,32.51
2023-04-24T11:23:40.712Z,32.77
2023-04-24T11:26:14.082Z,32.49
2023-04-24T11:28:50.200Z,32.27
2023-04-24T11:31:55.745Z,31.74
2023-04-24T11:34:22.886Z,31.67
2023-04-24T11:36:49.805Z,32.32
2023-04-24T11:39:16.580Z,32.18
2023-04-24T11:41:43.491Z,32.16
2023-04-24T11:44:10.398Z,32.22
2023-04-24T11:46:39.035Z,32.49
2023-04-24T11:49:06.789Z,32.52
2023-04-24T11:51:43.939Z,32.69
2023-04-24T11:54:15.216Z,32.68
2023-04-24T11:56:46.176Z,32.85
2023-04-24T11:59:13.307Z,33.52
2023-04-24T12:01:44.038Z,33.86
2023-04-24T12:04:11.076Z,33.79
2023-04-24T12:06:38.029Z,33.74
2023-04-24T12:09:17.391Z,33.15
2023-04-24T12:11:56.765Z,32.76
2023-04-24T12:14:23.784Z,32.93
2023-04-24T12:16:53.715Z,33.87
2023-04-24T12:19:23.622Z,34.55
2023-04-24T12:22:03.629Z,34.62
2023-04-24T12:24:31.297Z,35.14
2023-04-24T12:26:59.171Z,35.59
2023-04-24T12:29:26.109Z,35.17
2023-04-24T12:31:53.055Z,35.18
2023-04-24T12:34:21.350Z,35.23
2023-04-24T12:36:48.579Z,34.99
2023-04-24T12:39:16.442Z,35.50
2023-04-24T12:41:57.965Z,35.66
2023-04-24T12:44:35.584Z,35.35
2023-04-24T12:47:02.707Z,35.28
2023-04-24T12:49:31.348Z,35.11
2023-04-24T12:51:58.451Z,35.36
2023-04-24T12:54:25.381Z,35.67
2023-04-24T12:56:52.296Z,35.87
2023-04-24T12:59:19.041Z,35.78
2023-04-24T13:01:46.022Z,35.64
2023-04-24T13:04:12.954Z,35.67
2023-04-24T13:06:39.961Z,35.61
2023-04-24T13:09:06.789Z,35.69
2023-04-24T13:11:33.554Z,35.50
2023-04-24T13:14:00.603Z,35.18
2023-04-24T13:16:27.391Z,34.45
2023-04-24T13:18:54.317Z,34.56
2023-04-24T13:21:21.250Z,34.69
2023-04-24T13:23:48.034Z,34.62
2023-04-24T13:26:14.812Z,34.93
2023-04-24T13:28:41.581Z,35.18
2023-04-24T13:31:08.497Z,35.17
2023-04-24T13:33:35.332Z,35.21
2023-04-24T13:36:02.189Z,35.39
2023-04-24T13:38:29.031Z,35.55
2023-04-24T13:40:56.074Z,35.21
2023-04-24T13:43:22.824Z,35.53
2023-04-24T13:45:49.753Z,35.54
2023-04-24T13:48:16.583Z,35.30
2023-04-24T13:50:44.175Z,35.16
2023-04-24T13:53:11.217Z,34.83
2023-04-24T13:55:38.401Z,34.71
2023-04-24T13:58:05.305Z,34.68
2023-04-24T14:00:32.126Z,35.05
2023-04-24T14:02:59.144Z,34.83
2023-04-24T14:05:26.435Z,35.22
2023-04-24T14:07:53.316Z,35.49
2023-04-24T14:10:20.456Z,35.62
2023-04-24T14:12:47.394Z,35.44
2023-04-24T14:15:14.577Z,35.64
2023-04-24T14:17:41.418Z,35.92
2023-04-24T14:20:08.572Z,35.42
2023-04-24T14:22:35.578Z,35.08
2023-04-24T14:25:02.617Z,35.02
2023-04-24T14:27:29.389Z,34.75
2023-04-24T14:29:56.718Z,34.95
2023-04-24T14:32:23.698Z,35.58
2023-04-24T14:34:50.651Z,35.62
2023-04-24T14:37:17.673Z,35.89
2023-04-24T14:39:46.107Z,36.29
2023-04-24T14:42:18.417Z,37.00
2023-04-24T14:44:45.675Z,37.23
2023-04-24T14:47:12.664Z,37.45
2023-04-24T14:49:39.851Z,37.49
2023-04-24T14:52:06.803Z,37.79
2023-04-24T14:54:33.667Z,37.50
2023-04-24T14:57:02.439Z,37.60
2023-04-24T14:59:29.986Z,37.14
2023-04-24T15:02:12.591Z,36.89
2023-04-24T15:04:48.240Z,37.06
2023-04-24T15:07:16.422Z,36.94
2023-04-24T15:09:44.034Z,36.78
2023-04-24T15:12:13.418Z,36.69
2023-04-24T15:14:40.392Z,36.59
2023-04-24T15:17:07.232Z,36.30
2023-04-24T15:19:34.115Z,36.86
2023-04-24T15:22:01.085Z,37.23
2023-04-24T15:24:28.138Z,37.14
2023-04-24T15:26:55.099Z,36.87
2023-04-24T15:29:21.889Z,37.16
2023-04-24T15:31:48.733Z,38.47
2023-04-24T15:34:15.697Z,39.42
2023-04-24T15:36:42.489Z,39.84
2023-04-24T15:39:11.922Z,40.33
2023-04-24T15:41:39.078Z,40.44
2023-04-24T15:44:06.531Z,40.84
2023-04-24T15:46:34.447Z,41.80
2023-04-24T15:49:01.346Z,42.54
2023-04-24T15:51:28.183Z,43.59
2023-04-24T15:53:55.130Z,44.41
2023-04-24T15:56:22.613Z,45.19
2023-04-24T15:58:49.705Z,45.91
2023-04-24T16:01:16.833Z,45.94
2023-04-24T16:03:43.941Z,45.91
2023-04-24T16:06:11.117Z,46.08
2023-04-24T16:08:38.026Z,46.48
2023-04-24T16:11:04.896Z,46.62
2023-04-24T16:13:32.228Z,47.22
2023-04-24T16:15:59.091Z,47.72
2023-04-24T16:18:26.216Z,47.75
2023-04-24T16:20:52.924Z,47.78
2023-04-24T16:23:34.158Z,47.91
2023-04-24T16:26:10.686Z,48.29
2023-04-24T16:28:39.233Z,48.90
2023-04-24T16:31:08.209Z,49.00
2023-04-24T16:33:34.999Z,49.05
2023-04-24T16:36:01.865Z,48.71
2023-04-24T16:38:28.681Z,48.51
2023-04-24T16:40:55.756Z,48.75
2023-04-24T16:43:22.603Z,48.77
2023-04-24T16:45:49.448Z,48.55
2023-04-24T16:48:16.285Z,48.42
2023-04-24T16:50:43.014Z,48.26
2023-04-24T16:53:09.795Z,48.28
2023-04-24T16:55:36.599Z,48.22
2023-04-24T16:58:03.447Z,47.60
2023-04-24T17:00:30.468Z,47.41
2023-04-24T17:02:59.327Z,47.01
2023-04-24T17:05:26.916Z,46.29
2023-04-24T17:07:53.669Z,46.23
2023-04-24T17:10:20.477Z,46.60
2023-04-24T17:12:47.364Z,46.99
2023-04-24T17:15:14.681Z,47.25
2023-04-24T17:17:44.300Z,47.55
2023-04-24T17:20:21.997Z,48.00
2023-04-24T17:22:49.992Z,48.19
2023-04-24T17:25:16.868Z,48.36
2023-04-24T17:27:44.355Z,48.59
2023-04-24T17:30:11.596Z,48.99
2023-04-24T17:32:38.613Z,49.27
2023-04-24T17:35:05.954Z,49.43
2023-04-24T17:37:33.433Z,49.54
2023-04-24T17:40:00.352Z,49.49
2023-04-24T17:42:27.121Z,49.39
2023-04-24T17:44:57.059Z,48.88
2023-04-24T17:47:26.275Z,48.80
2023-04-24T17:49:53.350Z,49.29
2023-04-24T17:52:20.302Z,49.23
2023-04-24T17:54:47.053Z,48.50
2023-04-24T17:57:13.980Z,48.27
2023-04-24T17:59:41.384Z,48.19
2023-04-24T18:02:08.268Z,48.04
2023-04-24T18:04:35.258Z,47.79
2023-04-24T18:07:02.176Z,46.96
2023-04-24T18:09:29.140Z,46.43
2023-04-24T18:11:57.197Z,47.79
2023-04-24T18:14:24.183Z,47.79
2023-04-24T18:16:50.951Z,47.77
2023-04-24T18:19:17.746Z,48.11
2023-04-24T18:21:44.520Z,48.09
2023-04-24T18:24:11.385Z,47.92
2023-04-24T18:26:38.241Z,47.78
2023-04-24T18:29:04.994Z,47.94
2023-04-24T18:31:32.760Z,47.96
2023-04-24T18:33:59.744Z,47.87
2023-04-24T18:36:26.645Z,47.50
2023-04-24T18:38:53.482Z,47.50
2023-04-24T18:41:20.628Z,47.68
2023-04-24T18:43:48.031Z,47.67
2023-04-24T18:46:15.191Z,47.91
2023-04-24T18:48:41.978Z,48.15
2023-04-24T18:51:10.046Z,48.37
2023-04-24T18:53:36.804Z,48.48
2023-04-24T18:56:03.841Z,48.82
2023-04-24T18:58:30.784Z,49.37
2023-04-24T19:00:57.914Z,50.22
2023-04-24T19:03:25.052Z,50.89
2023-04-24T19:05:51.926Z,50.96
2023-04-24T19:08:18.669Z,50.60
2023-04-24T19:10:45.503Z,50.80
2023-04-24T19:13:12.345Z,51.73
2023-04-24T19:15:40.414Z,51.62
2023-04-24T19:18:07.515Z,51.20
2023-04-24T19:20:34.422Z,51.47
2023-04-24T19:23:01.289Z,51.96
2023-04-24T19:25:28.099Z,52.08
2023-04-24T19:27:55.054Z,52.34
2023-04-24T19:30:21.981Z,52.54
2023-04-24T19:32:48.983Z,52.37
2023-04-24T19:35:16.026Z,52.23
2023-04-24T19:37:42.828Z,52.40
2023-04-24T19:40:10.897Z,52.65
2023-04-24T19:42:43.896Z,52.89
2023-04-24T19:45:12.333Z,53.12
2023-04-24T19:47:39.347Z,53.40
2023-04-24T19:50:10.070Z,53.51
2023-04-24T19:52:36.985Z,53.49
2023-04-24T19:55:04.209Z,53.45
2023-04-24T19:57:31.185Z,53.30
2023-04-24T19:59:58.130Z,53.17
2023-04-24T20:02:25.314Z,53.01
2023-04-24T20:04:52.508Z,52.74
2023-04-24T20:07:19.608Z,52.63
2023-04-24T20:09:46.441Z,52.47
2023-04-24T20:12:13.400Z,52.33
2023-04-24T20:14:40.535Z,52.01
2023-04-24T20:17:07.970Z,51.90
2023-04-24T20:19:34.903Z,51.90
2023-04-24T20:22:01.960Z,51.87
2023-04-24T20:24:28.902Z,51.81
2023-04-24T20:26:57.178Z,51.83
2023-04-24T20:29:24.124Z,51.72
2023-04-24T20:31:50.911Z,51.92
2023-04-24T20:34:17.820Z,52.21
2023-04-24T20:36:49.460Z,52.24
2023-04-24T20:39:17.144Z,52.37
2023-04-24T20:41:46.457Z,52.34
2023-04-24T20:44:14.316Z,52.34
2023-04-24T20:46:41.182Z,52.29
2023-04-24T20:49:08.089Z,52.30
2023-04-24T20:51:35.056Z,52.22
2023-04-24T20:54:01.970Z,52.12
2023-04-24T20:56:28.812Z,52.04
2023-04-24T20:58:57.181Z,51.93
2023-04-24T21:01:24.678Z,52.14
2023-04-24T21:03:52.805Z,52.29
2023-04-24T21:06:21.884Z,52.45
2023-04-24T21:08:48.764Z,52.36
2023-04-24T21:11:15.608Z,52.39
2023-04-24T21:13:42.339Z,52.52
2023-04-24T21:16:09.318Z,52.89
2023-04-24T21:18:41.227Z,52.98
2023-04-24T21:21:09.061Z,53.12
2023-04-24T21:23:36.297Z,53.08
2023-04-24T21:26:06.209Z,53.47
2023-04-24T21:28:33.079Z,53.83
2023-04-24T21:31:00.269Z,54.19
2023-04-24T21:33:27.023Z,54.54
2023-04-24T21:35:53.960Z,54.88
2023-04-24T21:38:23.418Z,55.05
2023-04-24T21:40:50.893Z,54.97
2023-04-24T21:43:18.744Z,54.90
2023-04-24T21:45:45.974Z,55.00
2023-04-24T21:48:12.815Z,55.51
2023-04-24T21:50:40.042Z,54.76
2023-04-24T21:53:07.301Z,54.34
2023-04-24T21:55:34.217Z,54.57
2023-04-24T21:58:00.960Z,54.84
2023-04-24T22:00:27.760Z,54.81
2023-04-24T22:02:54.712Z,54.80
2023-04-24T22:05:21.808Z,54.74
2023-04-24T22:07:50.809Z,55.45
2023-04-24T22:10:17.870Z,55.56
2023-04-24T22:12:44.804Z,55.33
2023-04-24T22:15:11.775Z,55.04
2023-04-24T22:17:39.794Z,54.92
2023-04-24T22:20:07.592Z,55.13
2023-04-24T22:22:34.893Z,55.02
2023-04-24T22:25:01.953Z,54.95
2023-04-24T22:27:28.720Z,54.75
2023-04-24T22:29:56.623Z,54.58
2023-04-24T22:32:23.785Z,54.51
2023-04-24T22:34:50.976Z,54.38
2023-04-24T22:37:17.686Z,54.36
2023-04-24T22:39:44.557Z,54.73
2023-04-24T22:42:11.809Z,55.07
2023-04-24T22:44:38.628Z,55.11
2023-04-24T22:47:08.582Z,54.92
2023-04-24T22:49:35.722Z,55.02
2023-04-24T22:52:05.306Z,55.32
2023-04-24T22:54:33.597Z,55.58
2023-04-24T22:57:01.061Z,55.64
2023-04-24T22:59:27.995Z,55.79
2023-04-24T23:01:54.896Z,55.83
2023-04-24T23:04:34.771Z,55.85
2023-04-24T23:07:01.838Z,55.92
2023-04-24T23:09:28.676Z,56.13
2023-04-24T23:11:55.511Z,55.97
2023-04-24T23:14:24.653Z,55.99
2023-04-24T23:16:51.627Z,55.98
2023-04-24T23:19:18.506Z,56.03
2023-04-24T23:21:45.280Z,56.09
2023-04-24T23:24:12.094Z,56.11
2023-04-24T23:26:39.045Z,56.13
2023-04-24T23:29:05.984Z,56.23
2023-04-24T23:31:32.770Z,56.07
2023-04-24T23:34:00.390Z,56.17
2023-04-24T23:36:27.438Z,56.44
2023-04-24T23:38:54.549Z,57.02
2023-04-24T23:41:21.529Z,57.62
2023-04-24T23:43:48.567Z,57.98
2023-04-24T23:46:15.744Z,58.24
2023-04-24T23:48:42.647Z,58.38
2023-04-24T23:51:09.471Z,58.44
2023-04-24T23:53:36.259Z,58.20
2023-04-24T23:56:03.141Z,58.25
2023-04-24T23:58:30.038Z,57.95
